Time;durP1;ratioP1;P1;durP2;ratioP2;P2;SDS_P1;SDS_P2;PMS_P1;PMS_P2;Temp;Humidity;BMP_temperature;BMP_pressure;BME280_temperature;BME280_humidity;BME280_pressure;Samples;Min_cycle;Max_cycle;Signal;HPM_P1;HPM_P2
2022/09/23 00:02:07;;;;;;;3.75;1.38;;;20.20;69.70;;;;;;4088909;28;20520;-39
2022/09/23 00:04:30;;;;;;;2.40;1.15;;;20.20;69.60;;;;;;4092279;28;20579;-39
2022/09/23 00:06:53;;;;;;;2.58;1.13;;;20.20;69.70;;;;;;4090758;28;20139;-39
2022/09/23 00:09:15;;;;;;;2.05;1.23;;;20.20;69.70;;;;;;4091931;28;20391;-43
2022/09/23 00:11:38;;;;;;;2.55;1.00;;;20.20;69.60;;;;;;4086623;28;20058;-45
2022/09/23 00:14:01;;;;;;;3.40;1.30;;;20.20;69.60;;;;;;4094009;28;20039;-40
2022/09/23 00:16:27;;;;;;;1.95;1.02;;;20.20;69.60;;;;;;4091167;28;20041;-40
2022/09/23 00:18:50;;;;;;;1.83;1.05;;;20.20;69.60;;;;;;4089859;28;20095;-41
2022/09/23 00:21:14;;;;;;;2.53;1.20;;;20.20;69.50;;;;;;4092543;28;20054;-42
2022/09/23 00:23:36;;;;;;;;;;;20.20;69.50;;;;;;4091936;28;20381;-39
2022/09/23 00:26:01;;;;;;;1.95;1.02;;;20.20;69.50;;;;;;4087560;28;19920;-42
2022/09/23 00:28:23;;;;;;;1.10;1.00;;;20.20;69.50;;;;;;4090603;28;20053;-40
2022/09/23 00:30:46;;;;;;;3.50;1.25;;;20.20;69.50;;;;;;4084452;28;20051;-40
2022/09/23 00:33:09;;;;;;;2.25;1.00;;;20.20;69.40;;;;;;4092580;28;20043;-40
2022/09/23 00:35:31;;;;;;;2.00;1.13;;;20.20;69.50;;;;;;4090918;28;20047;-40
2022/09/23 00:37:55;;;;;;;1.13;0.75;;;20.20;69.50;;;;;;4090167;28;20389;-41
2022/09/23 00:40:17;;;;;;;1.42;0.90;;;20.20;69.40;;;;;;4088360;28;20067;-40
2022/09/23 00:42:50;;;;;;;2.47;0.88;;;20.20;69.40;;;;;;4091330;28;20123;-40
2022/09/23 00:45:14;;;;;;;1.23;0.80;;;20.20;69.50;;;;;;4091912;28;20047;-41
2022/09/23 00:47:48;;;;;;;3.13;1.10;;;20.30;69.50;;;;;;4089573;28;20074;-40
2022/09/23 00:50:29;;;;;;;3.50;1.15;;;20.20;69.40;;;;;;4090284;28;20039;-39
2022/09/23 00:52:54;;;;;;;2.10;1.20;;;20.20;69.40;;;;;;4091590;28;20051;-39
2022/09/23 00:55:24;;;;;;;2.78;1.10;;;20.20;69.40;;;;;;4089791;28;20045;-39
2022/09/23 00:57:47;;;;;;;3.70;1.35;;;20.20;69.40;;;;;;4092780;28;20155;-40
2022/09/23 01:00:11;;;;;;;2.60;1.23;;;20.20;69.50;;;;;;4093485;28;20039;-40
2022/09/23 01:02:36;;;;;;;1.33;0.73;;;20.30;69.50;;;;;;4091546;28;20130;-45
2022/09/23 01:05:00;;;;;;;1.55;0.88;;;20.20;69.50;;;;;;4093076;28;20127;-39
2022/09/23 01:07:23;;;;;;;2.55;0.90;;;20.30;69.40;;;;;;4089422;28;20495;-40
2022/09/23 01:09:47;;;;;;;2.42;0.98;;;20.30;69.30;;;;;;4083212;28;20043;-39
2022/09/23 01:12:42;;;;;;;2.22;1.30;;;20.30;69.30;;;;;;4089978;28;20043;-39
2022/09/23 01:15:41;;;;;;;2.60;1.20;;;20.30;69.30;;;;;;4090104;28;20031;-40
2022/09/23 01:18:22;;;;;;;2.60;1.10;;;20.30;69.30;;;;;;4086562;28;20478;-40
2022/09/23 01:21:09;;;;;;;2.53;1.20;;;20.30;69.20;;;;;;4093791;28;20170;-38
2022/09/23 01:24:07;;;;;;;1.80;0.93;;;20.30;69.30;;;;;;4089763;28;20459;-38
2022/09/23 01:26:29;;;;;;;2.42;1.45;;;20.30;69.30;;;;;;4090901;28;20035;-38
2022/09/23 01:29:07;;;;;;;2.88;1.27;;;20.30;69.40;;;;;;4087928;28;20135;-40
2022/09/23 01:31:56;;;;;;;2.15;1.15;;;20.30;69.40;;;;;;4085715;28;20491;-37
2022/09/23 01:34:30;;;;;;;2.30;0.90;;;20.30;69.50;;;;;;4094660;28;20043;-38
2022/09/23 01:37:25;;;;;;;5.20;1.45;;;20.30;69.50;;;;;;4095893;28;20047;-41
2022/09/23 01:40:04;;;;;;;2.13;1.00;;;20.30;69.50;;;;;;4098267;28;20042;-38
2022/09/23 01:42:28;;;;;;;3.47;1.20;;;20.30;69.50;;;;;;4093653;28;20126;-38
2022/09/23 01:45:11;;;;;;;1.27;0.82;;;20.30;69.50;;;;;;4091190;28;20051;-38
2022/09/23 01:47:39;;;;;;;3.13;1.13;;;20.30;69.50;;;;;;4093646;28;20035;-39
2022/09/23 01:50:55;;;;;;;2.20;1.30;;;20.30;69.50;;;;;;4093954;28;20125;-42
2022/09/23 01:52:52;;;;;;;3.60;1.50;;;20.30;69.40;;;;;;4085186;28;20399;-45
2022/09/23 01:55:35;;;;;;;3.55;1.48;;;20.30;69.60;;;;;;4089786;28;20142;-40
2022/09/23 01:58:07;;;;;;;1.92;1.10;;;20.30;69.50;;;;;;4085979;28;20499;-42
2022/09/23 02:00:34;;;;;;;3.08;1.13;;;20.30;69.60;;;;;;4090038;28;20039;-39
2022/09/23 02:03:11;;;;;;;3.13;1.30;;;20.30;69.60;;;;;;4088401;28;20047;-42
2022/09/23 02:05:43;;;;;;;2.40;1.08;;;20.30;69.70;;;;;;4088088;28;20547;-39
2022/09/23 02:08:20;;;;;;;1.73;0.95;;;20.40;70.10;;;;;;4085414;29;20523;-39
2022/09/23 02:10:53;;;;;;;1.92;1.30;;;20.40;69.80;;;;;;4089598;28;20057;-41
2022/09/23 02:13:29;;;;;;;1.95;1.02;;;20.40;69.70;;;;;;4088686;28;20376;-39
2022/09/23 02:15:56;;;;;;;3.88;1.00;;;20.40;70.30;;;;;;4090659;28;20114;-43
2022/09/23 02:18:28;;;;;;;3.58;1.40;;;20.40;69.70;;;;;;4091134;28;20562;-38
2022/09/23 02:20:56;;;;;;;2.65;1.63;;;20.40;69.70;;;;;;4090021;28;20488;-39
2022/09/23 02:23:39;;;;;;;1.92;0.88;;;20.40;70.20;;;;;;4092652;28;20035;-39
2022/09/23 02:26:29;;;;;;;4.40;1.40;;;20.40;69.60;;;;;;4093057;28;20555;-39
2022/09/23 02:29:08;;;;;;;2.15;1.27;;;20.40;69.50;;;;;;4086508;28;20039;-39
2022/09/23 02:31:36;;;;;;;3.88;1.20;;;20.50;69.60;;;;;;4090581;28;20062;-39
2022/09/23 02:34:09;;;;;;;2.35;0.95;;;20.50;69.60;;;;;;4085318;28;20114;-45
2022/09/23 02:37:16;;;;;;;4.30;1.20;;;20.40;69.50;;;;;;4085994;28;20476;-43
2022/09/23 02:40:01;;;;;;;3.67;1.20;;;20.50;69.70;;;;;;4071478;29;20172;-40
2022/09/23 02:42:49;;;;;;;2.50;1.10;;;20.50;69.70;;;;;;4057083;29;20094;-39
2022/09/23 02:45:11;;;;;;;3.08;0.93;;;20.50;69.70;;;;;;4053398;29;20052;-39
2022/09/23 02:47:38;;;;;;;2.83;1.20;;;20.50;69.60;;;;;;4077412;29;20051;-41
2022/09/23 02:50:01;;;;;;;3.72;1.42;;;20.50;69.60;;;;;;4076228;29;20063;-40
2022/09/23 02:52:24;;;;;;;4.13;1.17;;;20.50;69.70;;;;;;4075761;29;20465;-39
2022/09/23 02:54:47;;;;;;;3.33;1.20;;;20.50;69.60;;;;;;4071501;29;20376;-42
2022/09/23 02:57:09;;;;;;;4.13;1.38;;;20.50;70.10;;;;;;4076831;29;20050;-38
2022/09/23 02:59:33;;;;;;;2.60;1.17;;;20.50;69.60;;;;;;4077268;29;20032;-41
2022/09/23 03:02:38;;;;;;;1.85;1.10;;;20.50;69.50;;;;;;4069569;29;20043;-38
2022/09/23 03:05:29;;;;;;;2.35;1.08;;;20.50;69.60;;;;;;4046014;29;20517;-39
2022/09/23 03:08:11;;;;;;;3.25;1.13;;;20.50;69.70;;;;;;4077583;29;20465;-38
2022/09/23 03:10:44;;;;;;;2.42;1.00;;;20.50;69.60;;;;;;4066184;29;20111;-39
2022/09/23 03:13:21;;;;;;;3.30;1.23;;;20.50;69.70;;;;;;4065603;29;20055;-42
2022/09/23 03:15:43;;;;;;;2.20;0.90;;;20.50;69.60;;;;;;4068881;29;20035;-40
2022/09/23 03:18:13;;;;;;;4.75;1.15;;;20.50;69.70;;;;;;4076406;29;20039;-39
2022/09/23 03:20:44;;;;;;;1.55;0.77;;;20.50;69.70;;;;;;4074153;29;20040;-40
2022/09/23 03:23:12;;;;;;;2.80;1.10;;;20.50;69.60;;;;;;4076163;29;20452;-39
2022/09/23 03:25:38;;;;;;;2.85;1.13;;;20.60;69.70;;;;;;4070816;29;20036;-40
2022/09/23 03:28:02;;;;;;;3.03;0.93;;;20.60;69.70;;;;;;4072919;29;20039;-38
2022/09/23 03:30:25;;;;;;;3.17;1.13;;;20.60;69.70;;;;;;4068985;29;20039;-38
2022/09/23 03:32:50;;;;;;;3.50;1.20;;;20.60;69.70;;;;;;4074257;29;20058;-39
2022/09/23 03:35:13;;;;;;;4.47;1.92;;;20.60;69.70;;;;;;4071166;29;20266;-40
2022/09/23 03:37:48;;;;;;;3.30;1.15;;;20.50;69.80;;;;;;4071520;29;20040;-41
2022/09/23 03:40:16;;;;;;;2.08;0.93;;;20.50;69.70;;;;;;4074670;29;20043;-38
2022/09/23 03:42:39;;;;;;;2.55;1.30;;;20.60;69.70;;;;;;4068488;29;20461;-40
2022/09/23 03:45:08;;;;;;;3.30;1.10;;;20.60;69.80;;;;;;4076499;29;20452;-38
2022/09/23 03:47:30;;;;;;;2.50;1.45;;;20.60;69.70;;;;;;4067763;29;20047;-41
2022/09/23 03:49:55;;;;;;;2.95;1.05;;;20.60;69.70;;;;;;4077405;28;20047;-38
2022/09/23 03:52:20;;;;;;;1.75;0.82;;;20.60;69.80;;;;;;4076099;28;20094;-39
2022/09/23 03:54:43;;;;;;;4.07;1.20;;;20.60;69.70;;;;;;4076457;29;20396;-42
2022/09/23 03:57:06;;;;;;;2.80;1.38;;;20.60;69.70;;;;;;4077964;29;20048;-38
2022/09/23 03:59:29;;;;;;;3.05;1.10;;;20.60;69.70;;;;;;4080148;29;20642;-38
2022/09/23 04:01:53;;;;;;;2.03;0.90;;;20.60;69.70;;;;;;4073888;29;20043;-38
2022/09/23 04:04:15;;;;;;;4.27;1.00;;;20.70;69.80;;;;;;4071892;28;20500;-37
2022/09/23 04:06:38;;;;;;;3.80;1.10;;;20.60;69.70;;;;;;4074407;29;20146;-41
2022/09/23 04:09:01;;;;;;;3.10;1.40;;;20.60;69.70;;;;;;4073519;29;20943;-40
2022/09/23 04:11:23;;;;;;;4.65;1.63;;;20.60;69.80;;;;;;4073130;29;20143;-39
2022/09/23 04:13:46;;;;;;;3.03;1.23;;;20.60;69.70;;;;;;4067439;28;20401;-38
2022/09/23 04:16:08;;;;;;;3.20;1.17;;;20.60;69.70;;;;;;4074253;29;20169;-39
2022/09/23 04:18:31;;;;;;;4.43;1.20;;;20.70;69.70;;;;;;4074951;29;20479;-38
2022/09/23 04:21:00;;;;;;;2.83;1.08;;;20.60;69.60;;;;;;4069246;29;20059;-40
2022/09/23 04:23:24;;;;;;;3.80;1.42;;;20.70;69.60;;;;;;4072381;29;20063;-42
2022/09/23 04:25:47;;;;;;;;;;;20.70;69.70;;;;;;4078109;29;20044;-41
2022/09/23 04:28:09;;;;;;;3.38;1.33;;;20.70;69.70;;;;;;4072156;28;19910;-38
2022/09/23 04:30:32;;;;;;;1.98;1.00;;;20.70;69.70;;;;;;4076573;29;20027;-39
2022/09/23 04:32:55;;;;;;;3.30;0.95;;;20.70;69.50;;;;;;4078445;29;20055;-41
2022/09/23 04:35:17;;;;;;;3.15;1.30;;;20.70;69.60;;;;;;4074786;29;20039;-40
2022/09/23 04:37:40;;;;;;;3.40;1.10;;;20.70;69.60;;;;;;4070961;29;20036;-38
2022/09/23 04:40:02;;;;;;;4.03;1.33;;;20.70;69.70;;;;;;4065584;29;20039;-38
2022/09/23 04:42:29;;;;;;;2.67;1.10;;;20.70;69.70;;;;;;4071889;29;20527;-39
2022/09/23 04:44:52;;;;;;;4.38;1.58;;;20.70;69.60;;;;;;4082048;28;20507;-40
2022/09/23 04:47:14;;;;;;;3.20;1.05;;;20.80;69.60;;;;;;4079913;28;20089;-40
2022/09/23 04:49:37;;;;;;;2.90;1.38;;;20.70;69.50;;;;;;4084971;28;20501;-39
2022/09/23 04:52:01;;;;;;;1.48;0.85;;;20.70;69.50;;;;;;4082257;28;20047;-38
2022/09/23 04:54:23;;;;;;;;;;;20.70;69.50;;;;;;4077224;28;20114;-38
2022/09/23 04:56:46;;;;;;;2.83;1.30;;;20.70;69.50;;;;;;4085397;28;19918;-41
2022/09/23 04:59:08;;;;;;;4.18;1.33;;;20.80;69.50;;;;;;4084191;28;20398;-38
2022/09/23 05:01:33;;;;;;;2.60;1.10;;;20.80;69.50;;;;;;4082830;28;20122;-39
2022/09/23 05:04:01;;;;;;;3.88;1.48;;;20.80;69.50;;;;;;4084402;28;20058;-38
2022/09/23 05:06:24;;;;;;;3.00;0.98;;;20.80;69.40;;;;;;4084141;28;20023;-37
2022/09/23 05:08:52;;;;;;;5.15;1.40;;;20.80;69.50;;;;;;4080992;28;20051;-41
2022/09/23 05:11:15;;;;;;;2.35;1.20;;;20.80;69.30;;;;;;4074100;28;20054;-39
2022/09/23 05:13:37;;;;;;;3.38;1.15;;;20.80;69.30;;;;;;4084133;28;20102;-38
2022/09/23 05:16:02;;;;;;;2.58;1.05;;;20.80;69.30;;;;;;4084041;28;20625;-37
2022/09/23 05:18:24;;;;;;;3.53;1.30;;;20.80;69.30;;;;;;4084202;28;20135;-38
2022/09/23 05:20:54;;;;;;;4.15;1.25;;;20.80;69.40;;;;;;4085182;28;20398;-40
2022/09/23 05:23:16;;;;;;;2.95;1.23;;;20.80;69.50;;;;;;4079236;28;20535;-40
2022/09/23 05:25:39;;;;;;;4.15;1.42;;;20.80;69.40;;;;;;4086766;28;20496;-39
2022/09/23 05:28:02;;;;;;;2.90;1.20;;;20.80;69.30;;;;;;4078881;28;20687;-37
2022/09/23 05:30:25;;;;;;;3.90;1.10;;;20.80;69.50;;;;;;4080512;28;20028;-37
2022/09/23 05:32:47;;;;;;;4.80;1.42;;;20.80;69.50;;;;;;4082510;28;20176;-39
2022/09/23 05:35:10;;;;;;;3.60;1.13;;;20.80;69.50;;;;;;4082829;28;20054;-38
2022/09/23 05:37:33;;;;;;;3.30;1.30;;;20.80;69.50;;;;;;4080602;28;20034;-40
2022/09/23 05:39:55;;;;;;;2.80;1.30;;;20.80;69.50;;;;;;4081332;28;20302;-39
2022/09/23 05:42:19;;;;;;;2.80;1.13;;;20.80;69.50;;;;;;4078733;28;20343;-39
2022/09/23 05:44:42;;;;;;;2.90;1.02;;;20.90;69.50;;;;;;4086068;28;20050;-39
2022/09/23 05:47:04;;;;;;;4.18;1.67;;;20.80;69.50;;;;;;4082614;28;20148;-38
2022/09/23 05:49:27;;;;;;;2.97;1.13;;;20.80;69.50;;;;;;4085612;28;20117;-38
2022/09/23 05:51:50;;;;;;;3.10;1.10;;;20.80;69.50;;;;;;4080757;28;20057;-38
2022/09/23 05:54:12;;;;;;;3.58;0.90;;;20.80;69.40;;;;;;4081326;28;20098;-38
2022/09/23 05:56:36;;;;;;;4.22;1.35;;;20.90;69.60;;;;;;4080684;28;20163;-37
2022/09/23 05:59:00;;;;;;;2.72;1.08;;;20.90;69.50;;;;;;4091855;28;20031;-37
2022/09/23 06:01:25;;;;;;;2.42;1.10;;;20.90;69.40;;;;;;4088933;28;20106;-37
2022/09/23 06:03:49;;;;;;;2.28;0.95;;;20.90;69.30;;;;;;4094452;28;20094;-37
2022/09/23 06:06:18;;;;;;;1.85;1.00;;;20.90;69.20;;;;;;4092953;28;20056;-37
2022/09/23 06:08:41;;;;;;;2.28;0.90;;;21.00;69.30;;;;;;4082993;28;20123;-44
2022/09/23 06:11:07;;;;;;;3.97;1.05;;;21.00;69.30;;;;;;4081200;28;20500;-38
2022/09/23 06:13:29;;;;;;;3.30;1.40;;;21.10;69.20;;;;;;4083447;28;20031;-39
2022/09/23 06:15:56;;;;;;;3.17;1.20;;;21.10;69.20;;;;;;4082476;28;20047;-38
2022/09/23 06:18:19;;;;;;;4.10;1.55;;;21.10;69.10;;;;;;4085119;28;20035;-40
2022/09/23 06:20:41;;;;;;;2.55;1.45;;;21.20;69.10;;;;;;4077605;28;20067;-37
2022/09/23 06:23:06;;;;;;;4.97;1.98;;;21.20;68.80;;;;;;4082195;28;20520;-38
2022/09/23 06:25:29;;;;;;;2.97;1.23;;;21.20;68.80;;;;;;4078642;28;20416;-41
2022/09/23 06:27:55;;;;;;;3.90;1.35;;;21.20;68.80;;;;;;4085095;28;20488;-38
2022/09/23 06:30:18;;;;;;;3.45;1.20;;;21.20;68.70;;;;;;4087564;28;20038;-39
2022/09/23 06:32:41;;;;;;;3.63;1.58;;;21.20;68.80;;;;;;4085749;28;20458;-41
2022/09/23 06:35:03;;;;;;;5.25;1.70;;;21.20;68.80;;;;;;4086561;28;20126;-39
2022/09/23 06:37:26;;;;;;;1.88;1.02;;;21.20;68.90;;;;;;4085100;28;20035;-38
2022/09/23 06:39:49;;;;;;;3.45;1.38;;;21.20;69.00;;;;;;4086031;28;20031;-42
2022/09/23 06:42:12;;;;;;;4.85;1.40;;;21.20;69.10;;;;;;4072434;28;20052;-38
2022/09/23 06:44:34;;;;;;;2.22;1.33;;;21.10;69.00;;;;;;4079145;28;20296;-42
2022/09/23 06:46:57;;;;;;;2.58;1.17;;;21.20;69.00;;;;;;4082865;28;20035;-40
2022/09/23 06:49:20;;;;;;;2.78;0.95;;;21.20;68.90;;;;;;4084348;28;20039;-38
2022/09/23 06:51:43;;;;;;;2.08;1.08;;;21.20;68.90;;;;;;4076265;28;20062;-46
2022/09/23 06:54:05;;;;;;;2.80;1.00;;;21.20;68.80;;;;;;4081950;28;20040;-38
2022/09/23 06:56:28;;;;;;;4.97;1.35;;;21.10;68.80;;;;;;4076737;28;20032;-38
2022/09/23 06:58:52;;;;;;;3.08;1.10;;;21.10;68.80;;;;;;4085492;28;20031;-40
2022/09/23 07:01:16;;;;;;;5.20;1.38;;;21.10;69.00;;;;;;4085688;28;20439;-40
2022/09/23 07:03:39;;;;;;;3.70;1.08;;;21.20;69.10;;;;;;4078147;28;20034;-41
2022/09/23 07:06:03;;;;;;;3.15;1.15;;;21.20;69.10;;;;;;4081591;28;20043;-39
2022/09/23 07:08:27;;;;;;;3.05;1.45;;;21.20;69.10;;;;;;4086813;28;20044;-38
2022/09/23 07:10:52;;;;;;;;;;;21.20;69.20;;;;;;4074508;28;20520;-38
2022/09/23 07:13:15;;;;;;;2.78;1.42;;;21.20;69.30;;;;;;4082232;28;19921;-38
2022/09/23 07:15:37;;;;;;;2.97;1.27;;;21.20;69.20;;;;;;4076545;28;20035;-40
2022/09/23 07:18:00;;;;;;;4.28;1.20;;;21.20;69.20;;;;;;4079338;28;20073;-39
2022/09/23 07:20:23;;;;;;;2.33;1.23;;;21.20;69.30;;;;;;4082479;28;20503;-40
2022/09/23 07:22:51;;;;;;;3.97;1.40;;;21.10;69.30;;;;;;4079355;28;20046;-39
2022/09/23 07:25:13;;;;;;;2.75;0.98;;;21.20;69.40;;;;;;4078997;28;20467;-45
2022/09/23 07:27:36;;;;;;;2.55;1.30;;;21.10;69.40;;;;;;4075956;28;20039;-38
2022/09/23 07:29:58;;;;;;;3.42;1.55;;;21.20;69.60;;;;;;4078630;28;20470;-40
2022/09/23 07:32:22;;;;;;;4.05;1.27;;;21.20;69.60;;;;;;4081149;28;20507;-44
2022/09/23 07:34:46;;;;;;;3.05;1.10;;;21.10;69.70;;;;;;4083615;28;20039;-41
2022/09/23 07:37:09;;;;;;;2.28;1.15;;;21.10;69.70;;;;;;4076610;28;20173;-44
2022/09/23 07:39:32;;;;;;;3.22;1.23;;;21.10;69.70;;;;;;4084171;28;20554;-42
2022/09/23 07:41:54;;;;;;;3.15;1.15;;;21.10;69.80;;;;;;4079067;28;20035;-40
2022/09/23 07:44:18;;;;;;;4.63;1.48;;;21.10;69.70;;;;;;4076538;28;20583;-42
2022/09/23 07:46:40;;;;;;;2.83;1.20;;;21.10;69.80;;;;;;4081472;28;20035;-44
2022/09/23 07:49:04;;;;;;;2.50;1.40;;;21.10;69.70;;;;;;4079545;28;20169;-41
2022/09/23 07:51:30;;;;;;;2.38;0.80;;;21.10;69.70;;;;;;4081599;28;20055;-40
2022/09/23 07:53:54;;;;;;;2.85;1.10;;;21.10;69.70;;;;;;4083672;28;22148;-39
2022/09/23 07:56:18;;;;;;;3.38;1.20;;;21.10;69.80;;;;;;4080566;28;20126;-40
2022/09/23 07:58:40;;;;;;;;;;;21.10;69.90;;;;;;4082306;28;20379;-39
2022/09/23 08:01:05;;;;;;;6.25;1.52;;;21.10;69.90;;;;;;4084875;28;19945;-42
2022/09/23 08:03:28;;;;;;;4.85;1.42;;;21.10;69.90;;;;;;4083459;28;20081;-43
2022/09/23 08:05:52;;;;;;;4.13;1.38;;;21.10;70.00;;;;;;4084824;28;20494;-40
2022/09/23 08:08:14;;;;;;;6.82;1.90;;;21.10;70.00;;;;;;4084871;28;20055;-43
2022/09/23 08:10:37;;;;;;;3.88;1.33;;;21.10;70.00;;;;;;4076091;28;20145;-41
2022/09/23 08:13:02;;;;;;;4.65;1.55;;;21.10;70.00;;;;;;4077550;28;20054;-39
2022/09/23 08:15:27;;;;;;;6.15;1.70;;;21.10;70.00;;;;;;4087752;28;20031;-40
2022/09/23 08:17:49;;;;;;;4.05;1.20;;;21.10;70.00;;;;;;4079477;28;20535;-39
2022/09/23 08:20:42;;;;;;;4.57;1.33;;;21.10;70.10;;;;;;4083610;28;20090;-41
2022/09/23 08:22:54;;;;;;;3.83;1.75;;;21.10;70.70;;;;;;4088937;28;20449;-43
2022/09/23 08:25:18;;;;;;;2.70;1.48;;;21.10;70.00;;;;;;4085314;28;20299;-39
2022/09/23 08:27:40;;;;;;;5.25;1.77;;;21.10;70.00;;;;;;4087956;28;20051;-39
2022/09/23 08:30:03;;;;;;;2.47;1.20;;;21.10;70.00;;;;;;4080800;28;20061;-47
2022/09/23 08:32:26;;;;;;;3.25;1.17;;;21.10;70.00;;;;;;4087070;28;20055;-44
2022/09/23 08:34:49;;;;;;;3.33;1.45;;;21.10;70.00;;;;;;4088602;28;20070;-40
2022/09/23 08:37:11;;;;;;;5.15;1.60;;;21.10;70.10;;;;;;4092373;28;20525;-40
2022/09/23 08:39:34;;;;;;;3.67;1.38;;;21.00;70.00;;;;;;4083231;28;20035;-42
2022/09/23 08:42:02;;;;;;;3.90;1.42;;;21.10;70.10;;;;;;4085818;28;21594;-38
2022/09/23 08:44:47;;;;;;;5.05;1.40;;;21.10;70.10;;;;;;4081102;28;20111;-43
2022/09/23 08:47:19;;;;;;;4.10;1.60;;;21.10;70.10;;;;;;4087218;28;20531;-41
2022/09/23 08:49:54;;;;;;;2.85;1.40;;;21.00;70.10;;;;;;4084609;28;20043;-38
2022/09/23 08:52:26;;;;;;;2.97;1.15;;;21.00;70.10;;;;;;4085956;28;20570;-39
2022/09/23 08:54:48;;;;;;;4.90;1.80;;;21.00;70.20;;;;;;4086681;28;20110;-39
2022/09/23 08:57:33;;;;;;;4.28;1.40;;;21.00;70.10;;;;;;4083809;28;20818;-38
2022/09/23 08:59:57;;;;;;;3.33;1.08;;;21.00;70.30;;;;;;4082049;28;20046;-39
2022/09/23 09:02:21;;;;;;;3.42;1.60;;;21.10;70.10;;;;;;4085849;28;20594;-40
2022/09/23 09:04:56;;;;;;;2.72;1.10;;;21.00;70.10;;;;;;4086026;28;20050;-39
2022/09/23 09:07:26;;;;;;;4.07;1.40;;;21.10;70.10;;;;;;4083400;28;20094;-39
2022/09/23 09:09:57;;;;;;;4.20;1.42;;;21.00;70.10;;;;;;4082684;28;20051;-37
2022/09/23 09:12:41;;;;;;;3.22;1.52;;;21.00;70.10;;;;;;4087165;28;20089;-38
2022/09/23 09:15:18;;;;;;;3.65;1.58;;;21.00;70.20;;;;;;4087395;28;20479;-38
2022/09/23 09:17:58;;;;;;;3.05;1.48;;;21.00;70.20;;;;;;4087304;28;20130;-40
2022/09/23 09:20:49;;;;;;;3.92;1.33;;;21.00;70.20;;;;;;4087887;28;20039;-39
2022/09/23 09:23:12;;;;;;;4.22;1.38;;;21.00;70.40;;;;;;4084058;28;20050;-39
2022/09/23 09:25:44;;;;;;;3.08;1.45;;;21.00;70.30;;;;;;4081577;28;20069;-40
2022/09/23 09:28:21;;;;;;;2.90;1.17;;;21.00;70.40;;;;;;4084821;28;20047;-38
2022/09/23 09:30:45;;;;;;;1.58;0.93;;;21.00;70.50;;;;;;4086504;28;20047;-39
2022/09/23 09:33:16;;;;;;;3.35;1.20;;;21.00;70.50;;;;;;4082890;28;20143;-39
2022/09/23 09:36:00;;;;;;;3.42;1.27;;;21.00;70.50;;;;;;4086624;28;20063;-38
2022/09/23 09:38:23;;;;;;;5.07;1.83;;;21.00;70.60;;;;;;4088250;28;20036;-38
2022/09/23 09:40:47;;;;;;;2.55;1.23;;;21.00;70.60;;;;;;4084825;28;20047;-38
2022/09/23 09:43:21;;;;;;;5.03;1.45;;;21.00;70.50;;;;;;4086033;28;20051;-38
2022/09/23 09:46:02;;;;;;;4.50;1.42;;;21.00;70.50;;;;;;4086523;28;20567;-39
2022/09/23 09:48:52;;;;;;;3.35;1.23;;;21.00;70.60;;;;;;4086261;28;20130;-40
2022/09/23 09:51:21;;;;;;;3.40;1.40;;;21.00;70.60;;;;;;4069661;28;20472;-39
2022/09/23 09:53:44;;;;;;;2.30;1.40;;;21.00;70.50;;;;;;4083735;28;20039;-38
2022/09/23 09:56:18;;;;;;;3.72;1.38;;;21.00;70.60;;;;;;4086317;28;20380;-38
2022/09/23 09:59:12;;;;;;;3.83;1.75;;;21.00;70.50;;;;;;4086261;28;20723;-38
2022/09/23 10:01:35;;;;;;;4.97;1.63;;;21.00;70.50;;;;;;4087045;28;20051;-38
2022/09/23 10:04:17;;;;;;;2.38;1.45;;;21.00;70.60;;;;;;4084199;28;20058;-37
2022/09/23 10:06:40;;;;;;;2.95;1.30;;;21.00;70.60;;;;;;4088739;28;20043;-38
2022/09/23 10:09:19;;;;;;;3.72;1.25;;;21.00;70.50;;;;;;4094218;28;20046;-40
2022/09/23 10:11:43;;;;;;;3.33;1.55;;;21.00;70.60;;;;;;4091816;28;20528;-39
2022/09/23 10:14:18;;;;;;;3.20;1.10;;;21.00;70.60;;;;;;4085285;28;20044;-39
2022/09/23 10:16:41;;;;;;;3.03;1.30;;;21.00;71.20;;;;;;4085642;28;20069;-38
2022/09/23 10:19:12;;;;;;;3.83;1.52;;;21.00;70.60;;;;;;4092254;28;20047;-39
2022/09/23 10:21:36;;;;;;;3.25;1.30;;;21.00;70.50;;;;;;4087902;28;20035;-39
2022/09/23 10:24:01;;;;;;;4.20;1.42;;;21.00;70.50;;;;;;4087627;28;20456;-39
2022/09/23 10:26:37;;;;;;;4.38;1.50;;;21.00;70.50;;;;;;4089657;28;20128;-38
2022/09/23 10:29:23;;;;;;;3.63;1.35;;;21.00;70.50;;;;;;4084077;28;20099;-38
2022/09/23 10:31:45;;;;;;;3.70;1.00;;;21.00;70.60;;;;;;4094775;28;20081;-51
2022/09/23 10:34:27;;;;;;;3.85;1.33;;;21.00;70.60;;;;;;4090305;28;20066;-52
2022/09/23 10:37:14;;;;;;;3.78;1.25;;;21.00;70.60;;;;;;4086700;28;20039;-49
2022/09/23 10:48:40;;;;;;;2.75;1.30;;;21.00;70.60;;;;;;4092619;28;20057;-51
2022/09/23 10:51:33;;;;;;;3.60;1.50;;;21.00;70.50;;;;;;4078702;28;20062;-53
2022/09/23 10:54:05;;;;;;;3.70;1.45;;;21.00;70.50;;;;;;4086101;28;20115;-52
2022/09/23 10:56:33;;;;;;;3.47;1.25;;;20.90;70.50;;;;;;4091058;28;20047;-53
2022/09/23 10:58:58;;;;;;;5.45;1.48;;;21.00;70.50;;;;;;4084294;28;20048;-48
2022/09/23 11:01:27;;;;;;;3.55;1.23;;;20.90;70.50;;;;;;4093051;28;20043;-51
2022/09/23 11:03:58;;;;;;;1.92;1.15;;;20.90;70.50;;;;;;4082076;28;20121;-51
2022/09/23 11:06:21;;;;;;;2.05;1.23;;;20.90;70.50;;;;;;4083009;28;20086;-51
2022/09/23 11:08:58;;;;;;;3.10;1.17;;;20.90;70.50;;;;;;4084947;28;20047;-51
2022/09/23 11:11:48;;;;;;;2.72;1.20;;;20.90;70.50;;;;;;4087661;28;20187;-47
2022/09/23 11:14:22;;;;;;;2.53;1.20;;;20.90;70.60;;;;;;4083550;28;20118;-52
2022/09/23 11:17:13;;;;;;;3.53;1.40;;;20.90;70.60;;;;;;4084978;28;20039;-52
2022/09/23 11:19:48;;;;;;;4.88;1.67;;;20.90;70.70;;;;;;4088202;28;20043;-50
2022/09/23 11:22:41;;;;;;;3.83;1.20;;;20.90;70.60;;;;;;4087032;28;20054;-47
2022/09/23 11:25:22;;;;;;;4.68;1.73;;;20.90;70.60;;;;;;4084238;28;20538;-51
2022/09/23 11:28:03;;;;;;;3.40;1.02;;;20.90;70.60;;;;;;4084550;28;20809;-51
2022/09/23 11:30:46;;;;;;;5.28;1.50;;;20.90;70.60;;;;;;4089117;28;20044;-55
2022/09/23 11:33:30;;;;;;;3.83;1.80;;;20.90;70.60;;;;;;4082185;28;20052;-54
2022/09/23 11:36:05;;;;;;;4.05;1.38;;;20.90;70.70;;;;;;4081943;28;20046;-50
2022/09/23 11:38:34;;;;;;;3.50;1.52;;;20.90;70.70;;;;;;4086194;28;20130;-52
2022/09/23 11:41:02;;;;;;;4.15;1.50;;;20.90;70.70;;;;;;4085207;28;20043;-51
2022/09/23 11:43:28;;;;;;;3.65;1.38;;;20.90;70.70;;;;;;4081519;28;20043;-51
2022/09/23 11:45:57;;;;;;;3.35;1.42;;;20.90;70.70;;;;;;4081438;28;20051;-50
2022/09/23 11:48:36;;;;;;;3.10;1.30;;;20.90;70.70;;;;;;4081524;28;20452;-50
2022/09/23 11:51:30;;;;;;;2.63;1.50;;;20.90;70.70;;;;;;4087724;28;20059;-49
2022/09/23 11:54:03;;;;;;;4.28;1.58;;;20.90;70.80;;;;;;4100128;28;20086;-50
2022/09/23 11:56:30;;;;;;;5.72;1.73;;;20.90;70.80;;;;;;4091115;28;20073;-54
2022/09/23 11:59:31;;;;;;;5.93;1.50;;;20.90;70.80;;;;;;4085209;28;20043;-49
2022/09/23 12:02:15;;;;;;;4.57;1.75;;;20.90;70.90;;;;;;4088794;28;20171;-51
2022/09/23 12:04:47;;;;;;;5.00;2.08;;;20.90;70.90;;;;;;4089756;28;20043;-51
2022/09/23 12:07:21;;;;;;;3.92;1.42;;;20.90;70.80;;;;;;4090462;28;20042;-51
2022/09/23 12:09:54;;;;;;;3.72;1.50;;;20.90;70.80;;;;;;4083106;28;20074;-52
2022/09/23 12:12:23;;;;;;;5.70;1.80;;;20.90;70.80;;;;;;4088007;28;20058;-52
2022/09/23 12:14:55;;;;;;;4.05;1.65;;;20.90;71.60;;;;;;4087753;28;20050;-53
2022/09/23 12:17:45;;;;;;;4.65;1.80;;;20.90;71.60;;;;;;4090704;28;20085;-51
2022/09/23 12:20:36;;;;;;;3.83;1.58;;;20.90;71.00;;;;;;4089810;28;20612;-52
2022/09/23 12:23:32;;;;;;;3.05;1.70;;;20.90;71.00;;;;;;4088604;28;20555;-49
2022/09/23 12:26:07;;;;;;;2.90;1.52;;;20.90;71.00;;;;;;4087396;28;20055;-55
2022/09/23 12:28:37;;;;;;;4.65;1.63;;;20.90;71.10;;;;;;4086483;28;20043;-52
2022/09/23 12:31:07;;;;;;;4.18;1.85;;;20.80;71.00;;;;;;4086414;28;20039;-53
2022/09/23 12:33:32;;;;;;;2.92;1.67;;;20.80;71.00;;;;;;4087592;28;20039;-53
2022/09/23 12:36:16;;;;;;;4.05;1.85;;;20.90;71.10;;;;;;4089034;28;20161;-53
2022/09/23 12:38:50;;;;;;;3.60;1.53;;;20.80;71.00;;;;;;4091782;28;20031;-55
2022/09/23 12:41:32;;;;;;;5.10;1.80;;;20.80;71.00;;;;;;4088311;28;20082;-48
2022/09/23 12:43:59;;;;;;;8.82;1.63;;;20.80;71.00;;;;;;4086678;28;20481;-52
2022/09/23 12:46:26;;;;;;;5.40;2.05;;;20.80;71.40;;;;;;4082726;28;20046;-47
2022/09/23 12:48:59;;;;;;;7.93;1.63;;;20.90;71.60;;;;;;4082492;28;20039;-50
2022/09/23 12:51:22;;;;;;;5.53;2.22;;;20.90;71.70;;;;;;4088129;28;20047;-48
2022/09/23 12:53:56;;;;;;;5.22;1.40;;;21.00;71.70;;;;;;4088431;28;20071;-46
2022/09/23 12:56:28;;;;;;;1.98;1.00;;;21.00;71.60;;;;;;4079868;28;20038;-47
2022/09/23 12:58:51;;;;;;;7.25;1.38;;;21.00;71.60;;;;;;4081988;28;20106;-51
2022/09/23 13:01:18;;;;;;;3.25;1.20;;;21.00;71.60;;;;;;4070457;28;20036;-48
2022/09/23 13:06:47;;;;;;;3.13;1.30;;;21.10;71.70;;;;;;4076964;28;20039;-52
2022/09/23 13:09:23;;;;;;;15.85;1.65;;;21.10;71.80;;;;;;4078166;28;20044;-52
2022/09/23 13:11:47;;;;;;;1.85;1.00;;;21.10;71.80;;;;;;4082816;28;20629;-49